Weather History for KBLM - April, 2013

Change the Weather History Date:

Sunday, April 7, 2013

  Actual Average Record
Temperature  
Mean Temperature 45 °F -  
Max Temperature 55 °F 53 °F 78 °F (2005)
Min Temperature 35 °F 37 °F 26 °F (2002)
Degree Days  
Heating Degree Days 20    
Moisture  
Dew Point 36 °F    
Average Humidity 65    
Maximum Humidity 75    
Minimum Humidity 50    
Precipitation  
Precipitation 0.00 in - - ()
Sea Level Pressure  
Sea Level Pressure 30.18 in    
Wind  
Wind Speed 9 mph (SSW)    
Max Wind Speed 21 mph    
Max Gust Speed 30 mph    
Visibility 10 miles    
Events      
Averages and records for this station are not official NWS values.
T = Trace of Precipitation, MM = Missing Value Source: NWS Daily Summary

Daily Weather History Graph

Daily Weather History Graph

Search for Another Location

Airport or City:

Trip Planner

Search our weather history database for the weather conditions in past years. The results will help you decide how hot, cold, wet, or windy it might be!

Date:

Astronomy

Apr. 07, 2013 Rise Set
Actual Time 6:30 AM EDT 7:27 PM EDT
Civil Twilight 6:02 AM EDT 7:54 PM EDT
Nautical Twilight 5:29 AM EDT 8:27 PM EDT
Astronomical Twilight 4:55 AM EDT 9:02 PM EDT
Moon 4:46 AM EDT (4/7) 4:56 PM EDT (4/7)
Length of Visible Light 13h 52m
Length of Day
12h 56m
Waning Crescent, 8% of the Moon is Illuminated
Apr 7
Waning Crescent
Apr 10
New
Apr 18
First Quarter
Apr 25
Full
May 2
Last Quarter

Hourly Weather History & Observations

Time (EDT) Temp. Windchill Dew Point Humidity Pressure Visibility Wind Dir Wind Speed Gust Speed Precip Events Conditions
12:15 AM 37.4 °F 33.8 °F 28.4 °F 70% 30.32 in 10.0 mi SW 4.6 mph - N/A   Clear
12:35 AM 37.4 °F 33.8 °F 28.4 °F 70% 30.31 in 10.0 mi SW 4.6 mph - N/A   Clear
12:55 AM 37.4 °F 32.8 °F 28.4 °F 70% 30.32 in 10.0 mi SW 5.8 mph - N/A   Clear
1:15 AM 35.6 °F 30.7 °F 28.4 °F 75% 30.32 in 10.0 mi SW 5.8 mph - N/A   Clear
1:35 AM 35.6 °F 29.9 °F 28.4 °F 75% 30.32 in 10.0 mi SW 6.9 mph - N/A   Clear
1:55 AM 35.6 °F 30.7 °F 28.4 °F 75% 30.31 in 10.0 mi SSW 5.8 mph - N/A   Clear
2:15 AM 35.6 °F 29.2 °F 28.4 °F 75% 30.31 in 10.0 mi SSW 8.1 mph - N/A   Clear
2:35 AM 35.6 °F 29.9 °F 28.4 °F 75% 30.31 in 10.0 mi SSW 6.9 mph - N/A   Clear
2:55 AM 37.4 °F 32.1 °F 30.2 °F 75% 30.30 in 10.0 mi SSW 6.9 mph - N/A   Clear
3:15 AM 37.4 °F 32.1 °F 30.2 °F 75% 30.30 in 10.0 mi SSW 6.9 mph - N/A   Clear
3:35 AM 37.4 °F 32.1 °F 30.2 °F 75% 30.29 in 10.0 mi SSW 6.9 mph - N/A   Clear
3:55 AM 37.4 °F 33.8 °F 30.2 °F 75% 30.29 in 10.0 mi SSW 4.6 mph - N/A   Clear
4:15 AM 37.4 °F 33.8 °F 30.2 °F 75% 30.29 in 10.0 mi SW 4.6 mph - N/A   Clear
4:35 AM 37.4 °F 33.8 °F 30.2 °F 75% 30.29 in 10.0 mi SW 4.6 mph - N/A   Clear
4:55 AM 37.4 °F 33.8 °F 28.4 °F 70% 30.29 in 10.0 mi SSW 4.6 mph - N/A   Clear
5:15 AM 37.4 °F 33.8 °F 28.4 °F 70% 30.29 in 10.0 mi SSW 4.6 mph - N/A   Clear
5:35 AM 37.4 °F 33.8 °F 28.4 °F 70% 30.29 in 10.0 mi SSW 4.6 mph - N/A   Clear
5:55 AM 37.4 °F 32.8 °F 28.4 °F 70% 30.29 in 10.0 mi SSW 5.8 mph - N/A   Clear
6:15 AM 37.4 °F 34.9 °F 28.4 °F 70% 30.29 in 10.0 mi SSW 3.5 mph - N/A   Clear
6:35 AM 37.4 °F 34.9 °F 28.4 °F 70% 30.29 in 10.0 mi SSW 3.5 mph - N/A   Scattered Clouds
6:55 AM 37.4 °F 34.9 °F 28.4 °F 70% 30.29 in 10.0 mi SSW 3.5 mph - N/A   Mostly Cloudy
7:15 AM 39.2 °F 37.0 °F 28.4 °F 65% 30.30 in 10.0 mi SSW 3.5 mph - N/A   Partly Cloudy
7:35 AM 39.2 °F 37.0 °F 30.2 °F 70% 30.29 in 10.0 mi South 3.5 mph - N/A   Partly Cloudy
7:55 AM 39.2 °F 37.0 °F 30.2 °F 70% 30.29 in 10.0 mi South 3.5 mph - N/A   Clear
8:15 AM 41.0 °F 37.1 °F 30.2 °F 65% 30.29 in 10.0 mi South 5.8 mph - N/A   Clear
8:35 AM 42.8 °F 37.0 °F 33.8 °F 70% 30.29 in 10.0 mi South 10.4 mph - N/A   Clear
8:55 AM 44.6 °F 38.8 °F 33.8 °F 66% 30.28 in 10.0 mi SSE 11.5 mph 20.7 mph N/A   Scattered Clouds
9:15 AM 46.4 °F 40.1 °F 32.0 °F 57% 30.26 in 10.0 mi South 15.0 mph 20.7 mph N/A   Mostly Cloudy
9:35 AM 46.4 °F 40.7 °F 32.0 °F 57% 30.27 in 10.0 mi South 12.7 mph 20.7 mph N/A   Mostly Cloudy
9:55 AM 48.2 °F - 33.8 °F 58% 30.27 in 10.0 mi South 13.8 mph 19.6 mph N/A   Partly Cloudy
10:15 AM 48.2 °F - 33.8 °F 58% 30.26 in 10.0 mi South 16.1 mph 20.7 mph N/A   Clear
10:35 AM 50.0 °F - 32.0 °F 50% 30.26 in 10.0 mi South 12.7 mph 20.7 mph N/A   Clear
10:55 AM 51.8 °F - 33.8 °F 50% 30.25 in 10.0 mi SSW 15.0 mph - N/A   Clear
11:15 AM 51.8 °F - 33.8 °F 50% 30.24 in 10.0 mi SSW 10.4 mph 23.0 mph N/A   Clear
11:55 AM 53.6 °F - 35.6 °F 51% 30.22 in 10.0 mi SSE 12.7 mph 18.4 mph N/A   Clear
12:15 PM 53.6 °F - 37.4 °F 54% 30.20 in 10.0 mi SSE 17.3 mph 24.2 mph N/A   Clear
12:35 PM 53.6 °F - 37.4 °F 54% 30.18 in 10.0 mi SSE 17.3 mph 23.0 mph N/A   Clear
12:55 PM 53.6 °F - 37.4 °F 54% 30.17 in 10.0 mi SSE 15.0 mph 24.2 mph N/A   Clear
1:15 PM 53.6 °F - 37.4 °F 54% 30.16 in 10.0 mi South 16.1 mph 25.3 mph N/A   Clear
1:35 PM 53.6 °F - 39.2 °F 58% 30.15 in 10.0 mi SSE 20.7 mph 29.9 mph N/A   Clear
1:55 PM 55.4 °F - 39.2 °F 54% 30.14 in 10.0 mi SSE 18.4 mph 24.2 mph N/A   Clear
2:15 PM 55.4 °F - 39.2 °F 54% 30.13 in 10.0 mi South 15.0 mph 20.7 mph N/A   Clear
2:35 PM 55.4 °F - 39.2 °F 54% 30.12 in 10.0 mi South 16.1 mph 24.2 mph N/A   Clear
2:55 PM 55.4 °F - 39.2 °F 54% 30.11 in 10.0 mi SSE 15.0 mph 21.9 mph N/A   Clear
3:15 PM 55.4 °F - 41.0 °F 58% 30.10 in 10.0 mi South 18.4 mph 23.0 mph N/A   Clear
3:35 PM 55.4 °F - 41.0 °F 58% 30.09 in 10.0 mi SSE 12.7 mph 24.2 mph N/A   Clear
3:55 PM 55.4 °F - 42.8 °F 63% 30.08 in 10.0 mi SSE 13.8 mph 21.9 mph N/A   Clear
4:15 PM 55.4 °F - 42.8 °F 63% 30.07 in 10.0 mi South 15.0 mph 23.0 mph N/A   Clear
4:35 PM 55.4 °F - 42.8 °F 63% 30.07 in 10.0 mi South 15.0 mph 19.6 mph N/A   Clear
4:55 PM 55.4 °F - 42.8 °F 63% 30.06 in 10.0 mi South 13.8 mph 19.6 mph N/A   Clear
5:15 PM 55.4 °F - 42.8 °F 63% 30.04 in 10.0 mi South 13.8 mph 24.2 mph N/A   Clear
5:35 PM 53.6 °F - 44.6 °F 72% 30.05 in 10.0 mi South 13.8 mph 20.7 mph N/A   Clear
5:55 PM 55.4 °F - 42.8 °F 63% 30.06 in 10.0 mi South 11.5 mph 20.7 mph N/A   Clear
6:15 PM 55.4 °F - 42.8 °F 63% 30.05 in 10.0 mi South 15.0 mph 21.9 mph N/A   Clear
6:35 PM 55.4 °F - 42.8 °F 63% 30.04 in 10.0 mi South 12.7 mph 21.9 mph N/A   Clear
6:55 PM 55.4 °F - 42.8 °F 63% 30.04 in 10.0 mi South 13.8 mph 19.6 mph N/A   Clear
7:15 PM 53.6 °F - 42.8 °F 67% 30.04 in 10.0 mi South 11.5 mph - N/A   Mostly Cloudy
7:35 PM 53.6 °F - 42.8 °F 67% 30.05 in 10.0 mi SSW 11.5 mph 24.2 mph N/A   Mostly Cloudy
7:55 PM 53.6 °F - 42.8 °F 67% 30.05 in 10.0 mi SSW 12.7 mph 18.4 mph N/A   Mostly Cloudy
8:15 PM 53.6 °F - 42.8 °F 67% 30.05 in 10.0 mi SSW 12.7 mph 18.4 mph N/A   Scattered Clouds
8:35 PM 53.6 °F - 42.8 °F 67% 30.06 in 10.0 mi SSW 9.2 mph - N/A   Mostly Cloudy
8:55 PM 53.6 °F - 42.8 °F 67% 30.06 in 10.0 mi SSW 10.4 mph 16.1 mph N/A   Overcast
9:15 PM 51.8 °F - 42.8 °F 71% 30.06 in 10.0 mi SSW 10.4 mph - N/A   Overcast
9:35 PM 51.8 °F - 42.8 °F 71% 30.06 in 10.0 mi SSW 9.2 mph - N/A   Overcast
9:55 PM 51.8 °F - 42.8 °F 71% 30.06 in 10.0 mi SSW 9.2 mph - N/A   Overcast
10:15 PM 51.8 °F - 42.8 °F 71% 30.06 in 10.0 mi SW 9.2 mph - N/A   Mostly Cloudy
10:35 PM 51.8 °F - 42.8 °F 71% 30.05 in 10.0 mi SSW 9.2 mph - N/A   Clear
10:55 PM 51.8 °F - 42.8 °F 71% 30.05 in 10.0 mi SW 8.1 mph - N/A   Clear
11:15 PM 51.8 °F - 42.8 °F 71% 30.04 in 10.0 mi SSW 9.2 mph - N/A   Clear
11:35 PM 51.8 °F - 42.8 °F 71% 30.03 in 10.0 mi SSW 10.4 mph - N/A   Clear
11:55 PM 53.6 °F - 42.8 °F 67% 30.03 in 10.0 mi SW 11.5 mph 16.1 mph N/A   Clear